Fair Seas — V7PD2 — position and weather

sailwx.info

Track history (hours):
 
Tides and Currents Weather Stations Pressure Air Temp Water Temp Dewpoint Dewpoint Depression Visibility Wind Speed Wind Dir Waves Ship Positions

Fair Seas

Last reported at 2014-Nov-18 10:33 UTC. Time now 2014-Nov-26 12:53 UTC.
Position N 60°01' E 027°16'.
Warning: this ship's position is 8 days out of date.

Length 250 m; draft 8.1 m.

Type: Tanker. MMSI: 538003211.

Date/timePositionNaut miles runAvg speedWind from/ knotsBaromVisibWave heightAir tempDewpointWater temp
2014-Nov-18 10:33N 60°01' E 027°16'1312.7
2014-Nov-18 09:33N 59°59' E 026°51'1313.1
2014-Nov-18 08:33N 59°57' E 026°25'1513.7
2014-Nov-18 07:25N 59°53' E 025°56'1213.7
2014-Nov-18 06:31N 59°50' E 025°31'1413.9
2014-Nov-18 05:32N 59°47' E 025°05'1313.7
2014-Nov-18 04:34N 59°45' E 024°39'1413.8
2014-Nov-18 03:33N 59°41' E 024°13'1414.1
2014-Nov-18 02:34N 59°37' E 023°46'1514.3
2014-Nov-18 01:31N 59°32' E 023°18'4313.7
2014-Nov-17 22:22N 59°12' E 022°04'29812.5
2014-Nov-16 22:32N 55°38' E 015°39'1111.5
2014-Nov-16 21:33N 55°34' E 015°20'1211.6
2014-Nov-16 20:30N 55°30' E 014°60'1111.5
2014-Nov-16 19:33N 55°26' E 014°42'1212.0
2014-Nov-16 18:33N 55°16' E 014°29'1211.7
2014-Nov-16 17:33N 55°09' E 014°13'2811.5
2014-Nov-16 15:05N 55°11' E 013°24'611.2
2014-Nov-16 14:33N 55°11' E 013°13'1111.0
2014-Nov-16 13:33N 55°14' E 012°55'1110.9
2014-Nov-16 12:33N 55°19' E 012°38'1111.4
2014-Nov-16 11:33N 55°30' E 012°41'7 7.2
2014-Nov-16 10:33N 55°37' E 012°42'1111.5
2014-Nov-16 09:33N 55°49' E 012°42'1212.0
2014-Nov-16 08:33N 56°01' E 012°40'9 8.7
2014-Nov-16 07:33N 56°07' E 012°30'9 8.9
2014-Nov-16 06:33N 56°12' E 012°16'10 9.7
2014-Nov-16 05:33N 56°18' E 012°03'5312.2
2014-Nov-16 01:11N 57°10' E 011°37'812.5
2014-Nov-16 00:33N 57°17' E 011°32'1312.6
2014-Nov-15 23:32N 57°29' E 011°21'1212.2
2014-Nov-15 22:33N 57°37' E 011°05'1212.1
2014-Nov-15 21:33N 57°45' E 010°48'1010.5
2014-Nov-15 20:33N 57°50' E 010°31'10 9.9
2014-Nov-15 19:33N 57°50' E 010°12'3310.3
2014-Nov-15 16:19N 57°43' E 009°11'810.9
2014-Nov-15 15:33N 57°41' E 008°55'1311.4
2014-Nov-15 14:22N 57°36' E 008°32'1011.9
2014-Nov-15 13:31N 57°30' E 008°17'1111.4
2014-Nov-15 12:32N 57°24' E 007°59'22311.1
2014-Nov-14 16:32N 54°08' E 004°50'1513.1
2014-Nov-14 15:24N 53°56' E 004°36'8213.4
2014-Nov-14 09:17N 52°49' E 003°17'3813.3
2014-Nov-14 06:27N 52°11' E 003°25'1213.5
2014-Nov-14 05:33N 52°06' E 003°42'1111.5
2014-Nov-14 04:33N 52°01' E 003°59'7 7.0
2014-Nov-14 03:33N 51°57' E 004°08'0 0.0
2014-Nov-14 02:31N 51°57' E 004°08'0 0.0
2014-Nov-14 01:31N 51°57' E 004°08'0 0.0
2014-Nov-14 00:31N 51°57' E 004°08'0 0.0
2014-Nov-13 23:31N 51°57' E 004°08'0 0.0
2014-Nov-13 22:31N 51°57' E 004°08'0 0.0
2014-Nov-13 21:31N 51°57' E 004°08'0 0.0
2014-Nov-13 20:31N 51°57' E 004°08'0 0.0
2014-Nov-13 19:31N 51°57' E 004°08'0 0.0
2014-Nov-13 18:31N 51°57' E 004°08'0 0.0
2014-Nov-13 17:31N 51°57' E 004°08'0 0.0
2014-Nov-13 16:33N 51°57' E 004°08'0 0.0
2014-Nov-13 15:31N 51°57' E 004°08'0 0.0
2014-Nov-13 14:31N 51°57' E 004°08'0 0.0
2014-Nov-13 13:31N 51°57' E 004°08'0 0.0
2014-Nov-13 12:31N 51°57' E 004°08'0 0.0
2014-Nov-13 11:31N 51°57' E 004°08'0 0.0
2014-Nov-13 10:32N 51°57' E 004°08'0 0.0
2014-Nov-13 09:31N 51°57' E 004°08'0 0.0
2014-Nov-13 08:31N 51°57' E 004°08'0 0.0
2014-Nov-13 07:31N 51°57' E 004°08'0 0.0
2014-Nov-13 06:33N 51°57' E 004°08'0 0.0
2014-Nov-13 05:31N 51°57' E 004°08'0 0.0
2014-Nov-13 04:31N 51°57' E 004°08'0 0.0
2014-Nov-13 03:33N 51°57' E 004°08'0 0.0
2014-Nov-13 02:31N 51°57' E 004°08'0 0.0
2014-Nov-13 01:31N 51°57' E 004°08'0 0.0
2014-Nov-13 00:31N 51°57' E 004°08'0 0.0
2014-Nov-12 23:32N 51°57' E 004°08'0 0.0
2014-Nov-12 22:31N 51°57' E 004°08'0 0.0
2014-Nov-12 21:31N 51°57' E 004°08'0 0.0
2014-Nov-12 20:31N 51°57' E 004°08'0 0.0
2014-Nov-12 19:31N 51°57' E 004°08'0 0.0
2014-Nov-12 18:28N 51°57' E 004°08'0 0.0
2014-Nov-12 17:31N 51°57' E 004°08'0 0.0
2014-Nov-12 16:31N 51°57' E 004°08'0 0.0
2014-Nov-12 15:31N 51°57' E 004°08'0 0.0
2014-Nov-12 14:31N 51°57' E 004°08'0 0.0
2014-Nov-12 13:31N 51°57' E 004°08'0 0.0
2014-Nov-12 12:31N 51°57' E 004°08'0 0.0
2014-Nov-12 11:31N 51°57' E 004°08'0 0.0
2014-Nov-12 10:31N 51°57' E 004°08'0 0.0
2014-Nov-12 09:31N 51°57' E 004°08'0 0.0
2014-Nov-12 08:31N 51°57' E 004°08'0 0.0
2014-Nov-12 07:31N 51°57' E 004°08'0 0.0
2014-Nov-12 06:31N 51°57' E 004°08'0 0.0
2014-Nov-12 05:31N 51°57' E 004°08'0 0.0
2014-Nov-12 04:31N 51°57' E 004°08'0 0.0
2014-Nov-12 03:31N 51°57' E 004°08'0 0.0
2014-Nov-12 02:31N 51°57' E 004°08'0 0.0
2014-Nov-12 01:31N 51°57' E 004°08'0 0.0
2014-Nov-12 00:31N 51°57' E 004°08'0 0.0
2014-Nov-11 23:31N 51°57' E 004°08'0 0.0
2014-Nov-11 22:31N 51°57' E 004°08'0 0.0
2014-Nov-11 21:31N 51°57' E 004°08'0 0.0
2014-Nov-11 20:31N 51°57' E 004°08'0 0.0
2014-Nov-11 19:28N 51°57' E 004°08'0 0.0
2014-Nov-11 18:31N 51°57' E 004°08'0 0.0
2014-Nov-11 17:31N 51°57' E 004°08'0 0.0
2014-Nov-11 16:31N 51°57' E 004°08'0 0.0
2014-Nov-11 15:31N 51°57' E 004°08'0 0.0
2014-Nov-11 14:31N 51°57' E 004°08'0 0.0
2014-Nov-11 13:31N 51°57' E 004°08'0 0.0
2014-Nov-11 12:31N 51°57' E 004°08'0 0.0
2014-Nov-11 11:31N 51°57' E 004°08'0 0.0
2014-Nov-11 10:31N 51°57' E 004°08'0 0.0
2014-Nov-11 09:31N 51°57' E 004°08'0 0.0
2014-Nov-11 08:28N 51°57' E 004°08'0 0.0
2014-Nov-11 07:31N 51°57' E 004°08'0 0.0
2014-Nov-11 06:31N 51°57' E 004°08'0 0.0
2014-Nov-11 05:31N 51°57' E 004°08'0 0.0
2014-Nov-11 04:31N 51°57' E 004°08'0 0.0
2014-Nov-11 03:31N 51°57' E 004°08'0 0.0
2014-Nov-11 02:31N 51°57' E 004°08'0 0.0
2014-Nov-11 01:31N 51°57' E 004°08'0 0.0
2014-Nov-11 00:31N 51°57' E 004°08'0 0.0
2014-Nov-10 23:31N 51°57' E 004°08'0 0.0
2014-Nov-10 22:31N 51°57' E 004°08'0 0.0
2014-Nov-10 21:31N 51°57' E 004°08'0 0.0
2014-Nov-10 20:31N 51°57' E 004°08'0 0.0
2014-Nov-10 19:31N 51°57' E 004°08'0 0.0
2014-Nov-10 18:31N 51°57' E 004°08'0 0.0
2014-Nov-10 17:31N 51°57' E 004°08'0 0.0
2014-Nov-10 16:31N 51°57' E 004°08'0 0.0
2014-Nov-10 15:31N 51°57' E 004°08'0 0.0
2014-Nov-10 14:31N 51°57' E 004°08'0 0.0
2014-Nov-10 13:31N 51°57' E 004°08'0 0.0
2014-Nov-10 12:31N 51°57' E 004°08'0 0.0
2014-Nov-10 11:31N 51°57' E 004°08'0 0.0
2014-Nov-10 10:31N 51°57' E 004°08'0 0.0
2014-Nov-10 09:31N 51°57' E 004°08'0 0.0
2014-Nov-10 08:31N 51°57' E 004°08'0 0.0
2014-Nov-10 07:31N 51°57' E 004°08'0 0.0
2014-Nov-10 06:31N 51°57' E 004°08'0 0.0
2014-Nov-10 05:31N 51°57' E 004°08'0 0.0
2014-Nov-10 04:31N 51°57' E 004°08'0 0.0
2014-Nov-10 03:31N 51°57' E 004°08'0 0.0
2014-Nov-10 02:31N 51°57' E 004°08'0 0.0
2014-Nov-10 01:31N 51°57' E 004°08'0 0.0
2014-Nov-10 00:31N 51°57' E 004°08'0 0.0
2014-Nov-09 23:31N 51°57' E 004°08'0 0.0
2014-Nov-09 22:31N 51°57' E 004°08'0 0.0
2014-Nov-09 21:31N 51°57' E 004°08'0 0.0
2014-Nov-09 20:31N 51°57' E 004°08'0 0.0
2014-Nov-09 19:31N 51°57' E 004°08'0 0.0
2014-Nov-09 18:31N 51°57' E 004°08'0 0.0
2014-Nov-09 17:31N 51°57' E 004°08'0 0.0
2014-Nov-09 16:28N 51°57' E 004°08'0 0.0
2014-Nov-09 15:31N 51°57' E 004°08'0 0.0
2014-Nov-09 14:32N 51°57' E 004°08'0 0.0
2014-Nov-09 13:33N 51°57' E 004°08'4 3.8
2014-Nov-09 12:34N 51°59' E 004°03'8 8.4
2014-Nov-09 11:34N 52°00' E 003°50'1110.7
2014-Nov-09 10:33N 51°57' E 003°33'10 9.8
2014-Nov-09 09:33N 51°50' E 003°22'1 0.6
2014-Nov-09 07:21N 51°49' E 003°22'0 0.0
2014-Nov-09 06:33N 51°49' E 003°22'0 0.1
2014-Nov-09 05:33N 51°49' E 003°22'4 4.1
2014-Nov-09 04:33N 51°53' E 003°20'2912.7
2014-Nov-09 02:15N 51°44' E 002°34'1115.2
2014-Nov-09 01:33N 51°36' E 002°23'1414.5
2014-Nov-09 00:34N 51°24' E 002°11'1414.0
2014-Nov-08 23:34N 51°12' E 001°60'1414.0
2014-Nov-08 22:33N 51°04' E 001°41'1312.6
2014-Nov-08 21:33N 50°54' E 001°29'4611.0
2014-Nov-08 17:22N 50°26' E 000°32'  
Track history (hours):
 
Tides and Currents Weather Stations Pressure Air Temp Water Temp Dewpoint Dewpoint Depression Visibility Wind Speed Wind Dir Waves Ship Positions

Fair Seas

Last reported at 2014-Nov-18 10:33 UTC. Time now 2014-Nov-26 12:53 UTC.
Position N 60°01' E 027°16'.
Warning: this ship's position is 8 days out of date.

Length 250 m; draft 8.1 m.

Type: Tanker. MMSI: 538003211.

Date/timePositionNaut miles runAvg speedWind from/ knotsBaromVisibWave heightAir tempDewpointWater temp
2014-Nov-18 10:33N 60°01' E 027°16'1312.7
2014-Nov-18 09:33N 59°59' E 026°51'1313.1
2014-Nov-18 08:33N 59°57' E 026°25'1513.7
2014-Nov-18 07:25N 59°53' E 025°56'1213.7
2014-Nov-18 06:31N 59°50' E 025°31'1413.9
2014-Nov-18 05:32N 59°47' E 025°05'1313.7
2014-Nov-18 04:34N 59°45' E 024°39'1413.8
2014-Nov-18 03:33N 59°41' E 024°13'1414.1
2014-Nov-18 02:34N 59°37' E 023°46'1514.3
2014-Nov-18 01:31N 59°32' E 023°18'4313.7
2014-Nov-17 22:22N 59°12' E 022°04'29812.5
2014-Nov-16 22:32N 55°38' E 015°39'1111.5
2014-Nov-16 21:33N 55°34' E 015°20'1211.6
2014-Nov-16 20:30N 55°30' E 014°60'1111.5
2014-Nov-16 19:33N 55°26' E 014°42'1212.0
2014-Nov-16 18:33N 55°16' E 014°29'1211.7
2014-Nov-16 17:33N 55°09' E 014°13'2811.5
2014-Nov-16 15:05N 55°11' E 013°24'611.2
2014-Nov-16 14:33N 55°11' E 013°13'1111.0
2014-Nov-16 13:33N 55°14' E 012°55'1110.9
2014-Nov-16 12:33N 55°19' E 012°38'1111.4
2014-Nov-16 11:33N 55°30' E 012°41'7 7.2
2014-Nov-16 10:33N 55°37' E 012°42'1111.5
2014-Nov-16 09:33N 55°49' E 012°42'1212.0
2014-Nov-16 08:33N 56°01' E 012°40'9 8.7
2014-Nov-16 07:33N 56°07' E 012°30'9 8.9
2014-Nov-16 06:33N 56°12' E 012°16'10 9.7
2014-Nov-16 05:33N 56°18' E 012°03'5312.2
2014-Nov-16 01:11N 57°10' E 011°37'812.5
2014-Nov-16 00:33N 57°17' E 011°32'1312.6
2014-Nov-15 23:32N 57°29' E 011°21'1212.2
2014-Nov-15 22:33N 57°37' E 011°05'1212.1
2014-Nov-15 21:33N 57°45' E 010°48'1010.5
2014-Nov-15 20:33N 57°50' E 010°31'10 9.9
2014-Nov-15 19:33N 57°50' E 010°12'3310.3
2014-Nov-15 16:19N 57°43' E 009°11'810.9
2014-Nov-15 15:33N 57°41' E 008°55'1311.4
2014-Nov-15 14:22N 57°36' E 008°32'1011.9
2014-Nov-15 13:31N 57°30' E 008°17'1111.4
2014-Nov-15 12:32N 57°24' E 007°59'22311.1
2014-Nov-14 16:32N 54°08' E 004°50'1513.1
2014-Nov-14 15:24N 53°56' E 004°36'8213.4
2014-Nov-14 09:17N 52°49' E 003°17'3813.3
2014-Nov-14 06:27N 52°11' E 003°25'1213.5
2014-Nov-14 05:33N 52°06' E 003°42'1111.5
2014-Nov-14 04:33N 52°01' E 003°59'7 7.0
2014-Nov-14 03:33N 51°57' E 004°08'0 0.0
2014-Nov-14 02:31N 51°57' E 004°08'0 0.0
2014-Nov-14 01:31N 51°57' E 004°08'0 0.0
2014-Nov-14 00:31N 51°57' E 004°08'0 0.0
2014-Nov-13 23:31N 51°57' E 004°08'0 0.0
2014-Nov-13 22:31N 51°57' E 004°08'0 0.0
2014-Nov-13 21:31N 51°57' E 004°08'0 0.0
2014-Nov-13 20:31N 51°57' E 004°08'0 0.0
2014-Nov-13 19:31N 51°57' E 004°08'0 0.0
2014-Nov-13 18:31N 51°57' E 004°08'0 0.0
2014-Nov-13 17:31N 51°57' E 004°08'0 0.0
2014-Nov-13 16:33N 51°57' E 004°08'0 0.0
2014-Nov-13 15:31N 51°57' E 004°08'0 0.0
2014-Nov-13 14:31N 51°57' E 004°08'0 0.0
2014-Nov-13 13:31N 51°57' E 004°08'0 0.0
2014-Nov-13 12:31N 51°57' E 004°08'0 0.0
2014-Nov-13 11:31N 51°57' E 004°08'0 0.0
2014-Nov-13 10:32N 51°57' E 004°08'0 0.0
2014-Nov-13 09:31N 51°57' E 004°08'0 0.0
2014-Nov-13 08:31N 51°57' E 004°08'0 0.0
2014-Nov-13 07:31N 51°57' E 004°08'0 0.0
2014-Nov-13 06:33N 51°57' E 004°08'0 0.0
2014-Nov-13 05:31N 51°57' E 004°08'0 0.0
2014-Nov-13 04:31N 51°57' E 004°08'0 0.0
2014-Nov-13 03:33N 51°57' E 004°08'0 0.0
2014-Nov-13 02:31N 51°57' E 004°08'0 0.0
2014-Nov-13 01:31N 51°57' E 004°08'0 0.0
2014-Nov-13 00:31N 51°57' E 004°08'0 0.0
2014-Nov-12 23:32N 51°57' E 004°08'0 0.0
2014-Nov-12 22:31N 51°57' E 004°08'0 0.0
2014-Nov-12 21:31N 51°57' E 004°08'0 0.0
2014-Nov-12 20:31N 51°57' E 004°08'0 0.0
2014-Nov-12 19:31N 51°57' E 004°08'0 0.0
2014-Nov-12 18:28N 51°57' E 004°08'0 0.0
2014-Nov-12 17:31N 51°57' E 004°08'0 0.0
2014-Nov-12 16:31N 51°57' E 004°08'0 0.0
2014-Nov-12 15:31N 51°57' E 004°08'0 0.0
2014-Nov-12 14:31N 51°57' E 004°08'0 0.0
2014-Nov-12 13:31N 51°57' E 004°08'0 0.0
2014-Nov-12 12:31N 51°57' E 004°08'0 0.0
2014-Nov-12 11:31N 51°57' E 004°08'0 0.0
2014-Nov-12 10:31N 51°57' E 004°08'0 0.0
2014-Nov-12 09:31N 51°57' E 004°08'0 0.0
2014-Nov-12 08:31N 51°57' E 004°08'0 0.0
2014-Nov-12 07:31N 51°57' E 004°08'0 0.0
2014-Nov-12 06:31N 51°57' E 004°08'0 0.0
2014-Nov-12 05:31N 51°57' E 004°08'0 0.0
2014-Nov-12 04:31N 51°57' E 004°08'0 0.0
2014-Nov-12 03:31N 51°57' E 004°08'0 0.0
2014-Nov-12 02:31N 51°57' E 004°08'0 0.0
2014-Nov-12 01:31N 51°57' E 004°08'0 0.0
2014-Nov-12 00:31N 51°57' E 004°08'0 0.0
2014-Nov-11 23:31N 51°57' E 004°08'0 0.0
2014-Nov-11 22:31N 51°57' E 004°08'0 0.0
2014-Nov-11 21:31N 51°57' E 004°08'0 0.0
2014-Nov-11 20:31N 51°57' E 004°08'0 0.0
2014-Nov-11 19:28N 51°57' E 004°08'0 0.0
2014-Nov-11 18:31N 51°57' E 004°08'0 0.0
2014-Nov-11 17:31N 51°57' E 004°08'0 0.0
2014-Nov-11 16:31N 51°57' E 004°08'0 0.0
2014-Nov-11 15:31N 51°57' E 004°08'0 0.0
2014-Nov-11 14:31N 51°57' E 004°08'0 0.0
2014-Nov-11 13:31N 51°57' E 004°08'0 0.0
2014-Nov-11 12:31N 51°57' E 004°08'0 0.0
2014-Nov-11 11:31N 51°57' E 004°08'0 0.0
2014-Nov-11 10:31N 51°57' E 004°08'0 0.0
2014-Nov-11 09:31N 51°57' E 004°08'0 0.0
2014-Nov-11 08:28N 51°57' E 004°08'0 0.0
2014-Nov-11 07:31N 51°57' E 004°08'0 0.0
2014-Nov-11 06:31N 51°57' E 004°08'0 0.0
2014-Nov-11 05:31N 51°57' E 004°08'0 0.0
2014-Nov-11 04:31N 51°57' E 004°08'0 0.0
2014-Nov-11 03:31N 51°57' E 004°08'0 0.0
2014-Nov-11 02:31N 51°57' E 004°08'0 0.0
2014-Nov-11 01:31N 51°57' E 004°08'0 0.0
2014-Nov-11 00:31N 51°57' E 004°08'0 0.0
2014-Nov-10 23:31N 51°57' E 004°08'0 0.0
2014-Nov-10 22:31N 51°57' E 004°08'0 0.0
2014-Nov-10 21:31N 51°57' E 004°08'0 0.0
2014-Nov-10 20:31N 51°57' E 004°08'0 0.0
2014-Nov-10 19:31N 51°57' E 004°08'0 0.0
2014-Nov-10 18:31N 51°57' E 004°08'0 0.0
2014-Nov-10 17:31N 51°57' E 004°08'0 0.0
2014-Nov-10 16:31N 51°57' E 004°08'0 0.0
2014-Nov-10 15:31N 51°57' E 004°08'0 0.0
2014-Nov-10 14:31N 51°57' E 004°08'0 0.0
2014-Nov-10 13:31N 51°57' E 004°08'0 0.0
2014-Nov-10 12:31N 51°57' E 004°08'0 0.0
2014-Nov-10 11:31N 51°57' E 004°08'0 0.0
2014-Nov-10 10:31N 51°57' E 004°08'0 0.0
2014-Nov-10 09:31N 51°57' E 004°08'0 0.0
2014-Nov-10 08:31N 51°57' E 004°08'0 0.0
2014-Nov-10 07:31N 51°57' E 004°08'0 0.0
2014-Nov-10 06:31N 51°57' E 004°08'0 0.0
2014-Nov-10 05:31N 51°57' E 004°08'0 0.0
2014-Nov-10 04:31N 51°57' E 004°08'0 0.0
2014-Nov-10 03:31N 51°57' E 004°08'0 0.0
2014-Nov-10 02:31N 51°57' E 004°08'0 0.0
2014-Nov-10 01:31N 51°57' E 004°08'0 0.0
2014-Nov-10 00:31N 51°57' E 004°08'0 0.0
2014-Nov-09 23:31N 51°57' E 004°08'0 0.0
2014-Nov-09 22:31N 51°57' E 004°08'0 0.0
2014-Nov-09 21:31N 51°57' E 004°08'0 0.0
2014-Nov-09 20:31N 51°57' E 004°08'0 0.0
2014-Nov-09 19:31N 51°57' E 004°08'0 0.0
2014-Nov-09 18:31N 51°57' E 004°08'0 0.0
2014-Nov-09 17:31N 51°57' E 004°08'0 0.0
2014-Nov-09 16:28N 51°57' E 004°08'0 0.0
2014-Nov-09 15:31N 51°57' E 004°08'0 0.0
2014-Nov-09 14:32N 51°57' E 004°08'0 0.0
2014-Nov-09 13:33N 51°57' E 004°08'4 3.8
2014-Nov-09 12:34N 51°59' E 004°03'8 8.4
2014-Nov-09 11:34N 52°00' E 003°50'1110.7
2014-Nov-09 10:33N 51°57' E 003°33'10 9.8
2014-Nov-09 09:33N 51°50' E 003°22'1 0.6
2014-Nov-09 07:21N 51°49' E 003°22'0 0.0
2014-Nov-09 06:33N 51°49' E 003°22'0 0.1
2014-Nov-09 05:33N 51°49' E 003°22'4 4.1
2014-Nov-09 04:33N 51°53' E 003°20'2912.7
2014-Nov-09 02:15N 51°44' E 002°34'1115.2
2014-Nov-09 01:33N 51°36' E 002°23'1414.5
2014-Nov-09 00:34N 51°24' E 002°11'1414.0
2014-Nov-08 23:34N 51°12' E 001°60'1414.0
2014-Nov-08 22:33N 51°04' E 001°41'1312.6
2014-Nov-08 21:33N 50°54' E 001°29'4611.0
2014-Nov-08 17:22N 50°26' E 000°32'  

Dump ship's entire track history